createdAt,value
2019-02-20T00:01:01.689Z,82.73
2019-02-20T00:03:34.472Z,82.89
2019-02-20T00:06:06.024Z,82.85
2019-02-20T00:08:36.740Z,82.51
2019-02-20T00:11:07.628Z,82.47
2019-02-20T00:13:38.804Z,82.52
2019-02-20T00:16:10.242Z,82.46
2019-02-20T00:18:41.445Z,82.50
2019-02-20T00:21:12.231Z,82.32
2019-02-20T00:23:43.421Z,82.09
2019-02-20T00:26:16.237Z,82.18
2019-02-20T00:28:47.668Z,81.92
2019-02-20T00:31:18.957Z,81.62
2019-02-20T00:33:50.433Z,81.62
2019-02-20T00:36:21.515Z,81.40
2019-02-20T00:38:52.603Z,81.48
2019-02-20T00:41:23.493Z,81.35
2019-02-20T00:43:57.266Z,81.29
2019-02-20T00:46:29.783Z,81.14
2019-02-20T00:49:02.480Z,81.07
2019-02-20T00:51:35.083Z,80.85
2019-02-20T00:54:09.421Z,80.75
2019-02-20T00:56:40.402Z,80.73
2019-02-20T00:59:11.308Z,80.45
2019-02-20T01:01:42.421Z,80.44
2019-02-20T01:04:15.284Z,80.24
2019-02-20T01:06:46.497Z,80.18
2019-02-20T01:09:17.443Z,80.08
2019-02-20T01:11:48.655Z,80.03
2019-02-20T01:14:19.637Z,79.99
2019-02-20T01:16:50.679Z,79.99
2019-02-20T01:19:21.359Z,79.80
2019-02-20T01:21:53.076Z,79.73
2019-02-20T01:24:24.347Z,79.54
2019-02-20T01:26:55.469Z,79.41
2019-02-20T01:29:28.383Z,79.33
2019-02-20T01:31:59.841Z,79.43
2019-02-20T01:34:31.251Z,79.26
2019-02-20T01:37:02.400Z,79.46
2019-02-20T01:39:32.822Z,79.23
2019-02-20T01:42:03.482Z,78.99
2019-02-20T01:44:34.432Z,79.07
2019-02-20T01:47:05.393Z,79.27
2019-02-20T01:49:36.775Z,79.17
2019-02-20T01:52:07.763Z,79.13
2019-02-20T01:54:38.407Z,79.05
2019-02-20T01:57:09.395Z,79.04
2019-02-20T01:59:40.649Z,78.83
2019-02-20T02:02:11.949Z,79.11
2019-02-20T02:04:43.290Z,79.05
2019-02-20T02:07:15.371Z,79.11
2019-02-20T02:09:46.689Z,79.17
2019-02-20T02:12:17.623Z,79.08
2019-02-20T02:14:48.673Z,79.08
2019-02-20T02:17:19.667Z,79.30
2019-02-20T02:19:50.389Z,79.17
2019-02-20T02:22:21.844Z,79.13
2019-02-20T02:24:52.880Z,79.38
2019-02-20T02:27:24.974Z,79.35
2019-02-20T02:29:57.045Z,79.26
2019-02-20T02:32:28.234Z,79.24
2019-02-20T02:34:59.059Z,79.15
2019-02-20T02:37:30.338Z,79.10
2019-02-20T02:40:01.980Z,79.14
2019-02-20T02:42:33.233Z,79.21
2019-02-20T02:45:04.823Z,79.29
2019-02-20T02:47:35.901Z,79.20
2019-02-20T02:50:08.261Z,79.15
2019-02-20T02:52:39.085Z,79.25
2019-02-20T02:55:09.842Z,79.38
2019-02-20T02:57:40.713Z,79.26
2019-02-20T03:00:12.095Z,79.29
2019-02-20T03:02:42.938Z,79.29
2019-02-20T03:05:13.638Z,79.31
2019-02-20T03:07:44.234Z,79.27
2019-02-20T03:10:15.570Z,79.24
2019-02-20T03:12:46.903Z,79.26
2019-02-20T03:15:17.950Z,79.31
2019-02-20T03:17:48.832Z,79.19
2019-02-20T03:20:19.517Z,79.24
2019-02-20T03:22:50.596Z,79.17
2019-02-20T03:25:21.210Z,79.24
2019-02-20T03:27:53.934Z,79.36
2019-02-20T03:30:25.016Z,79.13
2019-02-20T03:32:55.671Z,79.34
2019-02-20T03:35:26.709Z,79.28
2019-02-20T03:37:57.765Z,79.20
2019-02-20T03:40:29.166Z,79.27
2019-02-20T03:43:00.329Z,79.47
2019-02-20T03:45:31.471Z,79.61
2019-02-20T03:48:02.519Z,79.74
2019-02-20T03:50:33.682Z,79.96
2019-02-20T03:53:05.131Z,79.80
2019-02-20T03:55:35.643Z,79.67
2019-02-20T03:58:06.649Z,79.56
2019-02-20T04:00:37.722Z,79.91
2019-02-20T04:03:08.821Z,79.85
2019-02-20T04:05:39.360Z,80.00
2019-02-20T04:08:09.780Z,80.07
2019-02-20T04:10:41.103Z,80.10
2019-02-20T04:13:11.771Z,80.15
2019-02-20T04:15:42.931Z,79.88
2019-02-20T04:18:13.967Z,79.85
2019-02-20T04:20:46.414Z,79.82
2019-02-20T04:23:17.684Z,79.73
2019-02-20T04:25:48.824Z,79.58
2019-02-20T04:28:19.646Z,79.45
2019-02-20T04:30:50.555Z,79.33
2019-02-20T04:33:21.611Z,79.19
2019-02-20T04:35:52.583Z,79.20
2019-02-20T04:38:23.869Z,79.14
2019-02-20T04:40:55.018Z,78.74
2019-02-20T04:43:25.813Z,78.93
2019-02-20T04:45:56.654Z,78.77
2019-02-20T04:48:27.740Z,78.87
2019-02-20T04:50:58.710Z,78.89
2019-02-20T04:53:29.134Z,78.93
2019-02-20T04:55:59.875Z,79.09
2019-02-20T04:58:30.827Z,79.20
2019-02-20T05:01:01.698Z,79.16
2019-02-20T05:03:32.765Z,79.43
2019-02-20T05:06:03.834Z,79.56
2019-02-20T05:08:35.029Z,79.63
2019-02-20T05:11:05.848Z,79.84
2019-02-20T05:13:36.752Z,80.13
2019-02-20T05:16:07.859Z,80.28
2019-02-20T05:18:38.672Z,80.21
2019-02-20T05:21:10.006Z,80.34
2019-02-20T05:23:42.764Z,80.31
2019-02-20T05:26:13.421Z,80.41
2019-02-20T05:28:45.369Z,80.33
2019-02-20T05:31:16.716Z,80.17
2019-02-20T05:33:47.486Z,80.27
2019-02-20T05:36:18.391Z,80.30
2019-02-20T05:38:49.161Z,80.24
2019-02-20T05:41:20.321Z,80.39
2019-02-20T05:43:51.033Z,80.37
2019-02-20T05:46:21.842Z,80.29
2019-02-20T05:48:52.840Z,80.45
2019-02-20T05:51:23.944Z,80.43
2019-02-20T05:53:54.737Z,80.40
2019-02-20T05:56:25.692Z,80.44
2019-02-20T05:58:56.738Z,80.31
2019-02-20T06:01:28.105Z,80.23
2019-02-20T06:04:01.833Z,80.18
2019-02-20T06:06:33.026Z,80.13
2019-02-20T06:09:05.272Z,80.32
2019-02-20T06:11:36.300Z,80.14
2019-02-20T06:14:07.538Z,80.18
2019-02-20T06:16:38.579Z,80.05
2019-02-20T06:19:09.649Z,80.13
2019-02-20T06:21:41.057Z,80.11
2019-02-20T06:24:11.597Z,80.07
2019-02-20T06:26:42.220Z,79.95
2019-02-20T06:29:13.341Z,79.83
2019-02-20T06:31:44.404Z,79.87
2019-02-20T06:34:15.865Z,79.80
2019-02-20T06:36:47.123Z,79.95
2019-02-20T06:39:18.173Z,80.00
2019-02-20T06:41:50.177Z,79.99
2019-02-20T06:44:21.355Z,80.14
2019-02-20T06:46:52.656Z,80.17
2019-02-20T06:49:23.312Z,80.37
2019-02-20T06:51:54.298Z,80.37
2019-02-20T06:54:25.120Z,80.64
2019-02-20T06:56:56.800Z,81.00
2019-02-20T06:59:28.037Z,80.98
2019-02-20T07:01:59.070Z,81.24
2019-02-20T07:04:30.655Z,81.12
2019-02-20T07:07:04.941Z,81.11
2019-02-20T07:09:37.889Z,81.20
2019-02-20T07:12:09.917Z,81.32
2019-02-20T07:14:44.154Z,81.25
2019-02-20T07:17:17.812Z,81.15
2019-02-20T07:19:51.792Z,81.29
2019-02-20T07:22:27.434Z,81.39
2019-02-20T07:25:03.786Z,81.23
2019-02-20T07:27:38.497Z,81.15
2019-02-20T07:30:10.361Z,81.08
2019-02-20T07:32:41.206Z,81.13
2019-02-20T07:35:12.239Z,81.50
2019-02-20T07:37:43.663Z,80.96
2019-02-20T07:40:14.819Z,81.16
2019-02-20T07:42:46.091Z,81.12
2019-02-20T07:45:17.330Z,80.92
2019-02-20T07:47:48.734Z,81.05
2019-02-20T07:50:19.737Z,80.89
2019-02-20T07:52:50.859Z,80.78
2019-02-20T07:55:22.020Z,80.54
2019-02-20T07:57:52.879Z,80.53
2019-02-20T08:00:23.539Z,80.42
2019-02-20T08:02:54.379Z,80.27
2019-02-20T08:05:25.676Z,80.15
2019-02-20T08:07:56.721Z,80.12
2019-02-20T08:10:28.850Z,80.16
2019-02-20T08:13:00.759Z,79.71
2019-02-20T08:15:32.992Z,79.53
2019-02-20T08:18:04.902Z,79.22
2019-02-20T08:20:36.819Z,78.47
2019-02-20T08:23:08.084Z,77.74
2019-02-20T08:25:41.117Z,77.99
2019-02-20T08:28:11.835Z,77.80
2019-02-20T08:30:42.670Z,77.93
2019-02-20T08:33:14.821Z,77.56
2019-02-20T08:35:45.886Z,77.31
2019-02-20T08:38:16.891Z,77.23
2019-02-20T08:40:49.380Z,76.61
2019-02-20T08:43:20.200Z,76.65
2019-02-20T08:45:52.315Z,76.02
2019-02-20T08:48:23.682Z,75.92
2019-02-20T08:50:54.963Z,75.10
2019-02-20T08:53:26.283Z,74.12
2019-02-20T08:55:57.610Z,73.37
2019-02-20T08:58:29.017Z,73.52
2019-02-20T09:01:00.935Z,74.42
2019-02-20T09:03:32.837Z,73.58
2019-02-20T09:06:04.568Z,73.30
2019-02-20T09:08:35.647Z,72.63
2019-02-20T09:11:06.345Z,72.76
2019-02-20T09:13:37.943Z,71.87
2019-02-20T09:16:09.092Z,71.86
2019-02-20T09:18:40.495Z,72.31
2019-02-20T09:21:11.286Z,72.32
2019-02-20T09:23:42.020Z,72.58
2019-02-20T09:26:13.236Z,72.34
2019-02-20T09:28:44.779Z,71.97
2019-02-20T09:31:15.724Z,71.47
2019-02-20T09:33:48.405Z,71.37
2019-02-20T09:36:19.548Z,70.79
2019-02-20T09:38:50.595Z,70.25
2019-02-20T09:41:21.723Z,70.24
2019-02-20T09:43:52.985Z,70.01
2019-02-20T09:46:23.982Z,70.15
2019-02-20T09:48:55.544Z,68.80
2019-02-20T09:51:27.056Z,68.22
2019-02-20T09:53:58.148Z,68.53
2019-02-20T09:56:29.290Z,68.36
2019-02-20T09:59:00.565Z,68.74
2019-02-20T10:01:32.231Z,67.19
2019-02-20T10:04:03.661Z,66.95
2019-02-20T10:06:35.307Z,67.34
2019-02-20T10:09:07.043Z,67.55
2019-02-20T10:11:37.687Z,67.60
2019-02-20T10:14:09.290Z,67.25
2019-02-20T10:16:40.672Z,65.58
2019-02-20T10:19:11.345Z,66.11
2019-02-20T10:21:42.554Z,65.45
2019-02-20T10:24:13.894Z,65.12
2019-02-20T10:26:46.203Z,64.82
2019-02-20T10:29:17.197Z,64.86
2019-02-20T10:31:49.206Z,65.25
2019-02-20T10:34:20.895Z,65.34
2019-02-20T10:36:52.987Z,65.25
2019-02-20T10:39:24.645Z,65.49
2019-02-20T10:41:55.939Z,64.82
2019-02-20T10:44:27.601Z,64.74
2019-02-20T10:46:58.779Z,65.39
2019-02-20T10:49:29.699Z,64.53
2019-02-20T10:52:00.978Z,64.07
2019-02-20T10:54:32.493Z,63.86
2019-02-20T10:57:04.194Z,63.43
2019-02-20T10:59:35.608Z,63.17
2019-02-20T11:02:06.501Z,62.71
2019-02-20T11:04:37.849Z,63.00
2019-02-20T11:07:09.071Z,62.81
2019-02-20T11:09:40.411Z,62.66
2019-02-20T11:12:13.018Z,62.72
2019-02-20T11:14:44.658Z,62.90
2019-02-20T11:17:15.749Z,62.87
2019-02-20T11:19:47.487Z,62.94
2019-02-20T11:22:18.515Z,63.35
2019-02-20T11:24:50.826Z,63.00
2019-02-20T11:27:22.082Z,63.41
2019-02-20T11:29:53.146Z,63.01
2019-02-20T11:32:24.528Z,63.09
2019-02-20T11:34:56.124Z,63.29
2019-02-20T11:37:27.457Z,62.93
2019-02-20T11:39:58.247Z,63.91
2019-02-20T11:42:29.792Z,64.76
2019-02-20T11:45:01.580Z,65.01
2019-02-20T11:47:33.658Z,65.05
2019-02-20T11:50:07.785Z,65.33
2019-02-20T11:52:39.422Z,65.37
2019-02-20T11:55:12.917Z,65.23
2019-02-20T11:57:45.538Z,65.15
2019-02-20T12:00:18.522Z,64.84
2019-02-20T12:02:49.786Z,63.79
2019-02-20T12:05:20.834Z,63.52
2019-02-20T12:07:52.141Z,63.76
2019-02-20T12:10:22.747Z,64.21
2019-02-20T12:12:54.607Z,64.83
2019-02-20T12:15:26.251Z,65.43
2019-02-20T12:17:57.669Z,65.04
2019-02-20T12:20:28.561Z,65.36
2019-02-20T12:23:00.541Z,64.57
2019-02-20T12:25:31.713Z,64.68
2019-02-20T12:28:02.812Z,64.80
2019-02-20T12:30:34.038Z,64.47
2019-02-20T12:33:04.623Z,64.84
2019-02-20T12:35:38.051Z,64.54
2019-02-20T12:38:10.296Z,64.26
2019-02-20T12:40:41.900Z,63.75
2019-02-20T12:43:13.549Z,63.91
2019-02-20T12:45:50.592Z,63.35
2019-02-20T12:48:22.700Z,63.51
2019-02-20T12:50:54.315Z,62.75
2019-02-20T12:53:25.041Z,62.00
2019-02-20T12:55:57.408Z,62.18
2019-02-20T12:58:28.279Z,62.44
2019-02-20T13:01:00.517Z,62.71
2019-02-20T13:03:31.658Z,62.96
2019-02-20T13:06:04.401Z,62.84
2019-02-20T13:08:36.169Z,62.65
2019-02-20T13:11:07.713Z,62.60
2019-02-20T13:13:40.546Z,62.29
2019-02-20T13:16:11.710Z,62.29
2019-02-20T13:18:42.447Z,62.09
2019-02-20T13:21:14.600Z,61.85
2019-02-20T13:24:00.431Z,62.09
2019-02-20T13:26:40.904Z,61.05
2019-02-20T13:29:26.755Z,60.77
2019-02-20T13:32:12.504Z,60.39
2019-02-20T13:42:04.436Z,60.42
2019-02-20T13:44:51.124Z,57.67
2019-02-20T13:47:36.590Z,57.01
2019-02-20T13:50:23.747Z,57.15
2019-02-20T13:53:15.780Z,57.17
2019-02-20T13:56:01.753Z,57.42
2019-02-20T14:06:19.408Z,60.94
2019-02-20T14:09:01.738Z,62.33
2019-02-20T14:11:47.071Z,62.87
2019-02-20T14:14:34.200Z,63.21
2019-02-20T14:17:16.841Z,63.32
2019-02-20T14:19:58.973Z,63.20
2019-02-20T14:22:45.948Z,63.58
2019-02-20T14:25:36.506Z,63.75
2019-02-20T14:28:33.999Z,63.48
2019-02-20T14:31:19.144Z,64.01
2019-02-20T14:34:01.537Z,63.61
2019-02-20T14:36:52.888Z,63.67
2019-02-20T14:39:48.249Z,63.85
2019-02-20T14:42:38.955Z,63.47
2019-02-20T14:45:33.657Z,63.74
2019-02-20T14:48:26.800Z,63.52
2019-02-20T14:51:16.177Z,63.94
2019-02-20T14:53:58.171Z,64.16
2019-02-20T14:56:45.566Z,64.20
2019-02-20T14:59:35.403Z,63.91
2019-02-20T15:02:22.651Z,63.79
2019-02-20T15:05:13.014Z,63.78
2019-02-20T15:07:55.197Z,63.70
2019-02-20T15:10:45.617Z,63.95
2019-02-20T15:13:26.954Z,64.19
2019-02-20T15:16:03.085Z,63.86
2019-02-20T15:18:38.388Z,64.10
2019-02-20T15:21:35.226Z,64.18
2019-02-20T15:24:16.485Z,64.20
2019-02-20T15:26:56.192Z,64.36
2019-02-20T15:29:38.448Z,64.37
2019-02-20T15:32:22.024Z,64.54
2019-02-20T15:34:58.176Z,64.76
2019-02-20T15:37:52.235Z,64.85
2019-02-20T15:40:35.255Z,64.60
2019-02-20T15:43:18.553Z,64.44
2019-02-20T15:46:05.963Z,64.57
2019-02-20T15:48:49.723Z,64.64
2019-02-20T15:51:35.342Z,64.65
2019-02-20T15:54:19.540Z,64.87
2019-02-20T15:56:55.983Z,64.93
2019-02-20T15:59:35.770Z,65.01
2019-02-20T16:02:17.093Z,65.02
2019-02-20T16:04:58.234Z,64.98
2019-02-20T16:07:31.145Z,65.13
2019-02-20T16:10:11.808Z,65.16
2019-02-20T16:12:50.181Z,65.16
2019-02-20T16:15:35.194Z,65.43
2019-02-20T16:18:19.937Z,65.01
2019-02-20T16:20:58.875Z,64.89
2019-02-20T16:23:33.719Z,65.05
2019-02-20T16:26:08.944Z,64.89
2019-02-20T16:28:41.028Z,64.78
2019-02-20T16:31:21.897Z,64.66
2019-02-20T16:34:00.131Z,64.51
2019-02-20T16:36:45.590Z,64.59
2019-02-20T16:39:26.065Z,64.32
2019-02-20T16:42:04.865Z,63.79
2019-02-20T16:44:46.739Z,63.85
2019-02-20T16:47:26.838Z,63.59
2019-02-20T16:50:05.089Z,63.55
2019-02-20T16:52:43.614Z,63.64
2019-02-20T16:55:19.121Z,63.06
2019-02-20T16:57:55.964Z,63.29
2019-02-20T17:00:21.789Z,63.14
2019-02-20T17:02:53.698Z,63.07
2019-02-20T17:05:24.655Z,63.55
2019-02-20T17:07:55.132Z,63.28
2019-02-20T17:10:26.011Z,63.08
2019-02-20T17:13:05.415Z,62.96
2019-02-20T17:15:38.110Z,62.87
2019-02-20T17:18:09.549Z,63.42
2019-02-20T17:20:43.800Z,63.39
2019-02-20T17:23:14.469Z,63.35
2019-02-20T17:25:45.768Z,63.53
2019-02-20T17:28:17.751Z,63.63
2019-02-20T17:30:49.982Z,63.54
2019-02-20T17:33:20.715Z,63.90
2019-02-20T17:35:50.980Z,63.82
2019-02-20T17:38:21.850Z,63.44
2019-02-20T17:40:52.417Z,63.58
2019-02-20T17:43:22.764Z,63.62
2019-02-20T17:45:53.165Z,63.73
2019-02-20T17:48:23.570Z,63.53
2019-02-20T17:50:54.320Z,63.39
2019-02-20T17:53:25.278Z,63.42
2019-02-20T17:55:56.859Z,63.35
2019-02-20T17:58:27.754Z,63.19
2019-02-20T18:00:59.256Z,63.66
2019-02-20T18:03:29.809Z,63.70
2019-02-20T18:06:00.124Z,63.81
2019-02-20T18:08:30.520Z,63.73
2019-02-20T18:11:01.677Z,63.78
2019-02-20T18:13:32.292Z,63.99
2019-02-20T18:16:04.862Z,64.02
2019-02-20T18:18:35.310Z,64.17
2019-02-20T18:21:05.669Z,64.34
2019-02-20T18:23:36.007Z,64.02
2019-02-20T18:26:06.869Z,64.20
2019-02-20T18:28:37.833Z,64.53
2019-02-20T18:31:08.226Z,64.74
2019-02-20T18:33:38.582Z,64.95
2019-02-20T18:36:08.960Z,64.50
2019-02-20T18:38:39.486Z,64.90
2019-02-20T18:41:10.002Z,64.42
2019-02-20T18:43:40.693Z,64.36
2019-02-20T18:46:11.427Z,64.36
2019-02-20T18:48:42.587Z,64.14
2019-02-20T18:51:13.496Z,64.36
2019-02-20T18:53:45.096Z,64.54
2019-02-20T18:56:16.043Z,64.58
2019-02-20T18:58:47.180Z,64.83
2019-02-20T19:01:21.174Z,64.71
2019-02-20T19:03:57.167Z,65.02
2019-02-20T19:06:32.071Z,65.27
2019-02-20T19:09:13.478Z,65.22
2019-02-20T19:11:51.111Z,65.50
2019-02-20T19:14:25.339Z,65.33
2019-02-20T19:17:00.860Z,65.32
2019-02-20T19:19:33.459Z,65.58
2019-02-20T19:22:07.941Z,65.86
2019-02-20T19:24:48.661Z,66.10
2019-02-20T19:27:25.087Z,65.96
2019-02-20T19:30:01.015Z,65.85
2019-02-20T19:32:39.655Z,66.01
2019-02-20T19:35:14.550Z,66.21
2019-02-20T19:37:47.308Z,66.47
2019-02-20T19:40:21.599Z,66.60
2019-02-20T19:42:56.200Z,66.88
2019-02-20T19:45:30.102Z,67.03
2019-02-20T19:48:04.449Z,67.20
2019-02-20T19:50:39.643Z,67.17
2019-02-20T19:53:14.528Z,67.08
2019-02-20T19:55:46.961Z,67.15
2019-02-20T19:58:21.573Z,67.23
2019-02-20T20:00:56.439Z,67.38
2019-02-20T20:03:30.461Z,67.46
2019-02-20T20:06:04.650Z,67.50
2019-02-20T20:08:38.603Z,67.67
2019-02-20T20:11:12.704Z,67.79
2019-02-20T20:13:47.863Z,67.81
2019-02-20T20:16:22.318Z,67.83
2019-02-20T20:18:56.895Z,68.09
2019-02-20T20:21:31.225Z,68.34
2019-02-20T20:24:05.556Z,68.23
2019-02-20T20:26:37.980Z,68.31
2019-02-20T20:29:12.278Z,68.41
2019-02-20T20:31:46.765Z,68.65
2019-02-20T20:34:19.066Z,68.65
2019-02-20T20:36:53.257Z,68.39
2019-02-20T20:39:28.075Z,68.27
2019-02-20T20:42:02.579Z,68.47
2019-02-20T20:44:52.261Z,68.66
2019-02-20T20:47:26.508Z,68.77
2019-02-20T20:50:00.752Z,68.86
2019-02-20T20:52:34.905Z,68.94
2019-02-20T20:55:10.232Z,69.13
2019-02-20T20:57:47.762Z,69.16
2019-02-20T21:00:21.843Z,69.30
2019-02-20T21:02:55.840Z,69.42
2019-02-20T21:05:30.642Z,69.50
2019-02-20T21:08:04.847Z,69.64
2019-02-20T21:10:38.973Z,69.79
2019-02-20T21:13:12.854Z,70.06
2019-02-20T21:15:45.016Z,70.21
2019-02-20T21:18:19.736Z,70.36
2019-02-20T21:20:55.272Z,70.61
2019-02-20T21:23:34.370Z,70.78
2019-02-20T21:26:10.090Z,70.96
2019-02-20T21:28:53.139Z,71.10
2019-02-20T21:31:39.541Z,71.00
2019-02-20T21:34:18.387Z,71.23
2019-02-20T21:36:53.790Z,71.30
2019-02-20T21:39:28.395Z,71.35
2019-02-20T21:42:03.030Z,71.36
2019-02-20T21:44:36.787Z,71.61
2019-02-20T21:47:11.729Z,71.76
2019-02-20T21:49:47.690Z,71.92
2019-02-20T21:52:25.286Z,71.90
2019-02-20T21:55:00.418Z,72.07
2019-02-20T21:57:33.747Z,72.19
2019-02-20T22:00:08.143Z,72.21
2019-02-20T22:02:43.752Z,72.43
2019-02-20T22:05:16.272Z,72.33
2019-02-20T22:07:50.426Z,72.36
2019-02-20T22:10:24.649Z,72.50
2019-02-20T22:12:57.049Z,72.34
2019-02-20T22:15:29.318Z,72.33
2019-02-20T22:18:03.447Z,72.56
2019-02-20T22:20:39.548Z,72.64
2019-02-20T22:23:13.660Z,72.59
2019-02-20T22:25:45.903Z,72.87
2019-02-20T22:28:20.084Z,72.92
2019-02-20T22:30:53.972Z,72.91
2019-02-20T22:33:28.011Z,73.08
2019-02-20T22:36:03.573Z,73.19
2019-02-20T23:48:19.483Z,74.85
2019-02-20T23:50:50.281Z,74.88
2019-02-20T23:53:21.460Z,74.97
2019-02-20T23:55:52.499Z,75.07
2019-02-20T23:58:23.302Z,75.19
